createdAt,value
2022-08-22T00:03:15.495Z,14.90
2022-08-22T00:08:46.406Z,15.00
2022-08-22T00:18:57.443Z,15.10
2022-08-22T00:29:08.989Z,15.10
2022-08-22T00:39:18.952Z,15.10
2022-08-22T00:49:51.938Z,15.10
2022-08-22T01:00:15.100Z,15.10
2022-08-22T01:10:50.688Z,15.10
2022-08-22T01:21:45.536Z,15.10
2022-08-22T01:32:56.970Z,15.10
2022-08-22T01:43:12.177Z,15.10
2022-08-22T01:53:26.182Z,15.10
2022-08-22T02:03:41.361Z,15.20
2022-08-22T02:13:56.081Z,15.20
2022-08-22T02:24:05.902Z,15.30
2022-08-22T02:34:35.355Z,15.20
2022-08-22T02:44:49.035Z,15.30
2022-08-22T02:54:59.619Z,15.30
2022-08-22T03:05:24.528Z,15.30
2022-08-22T03:15:38.517Z,15.30
2022-08-22T03:25:52.229Z,15.30
2022-08-22T03:36:06.638Z,15.40
2022-08-22T03:47:02.911Z,15.40
2022-08-22T03:57:46.795Z,15.50
2022-08-22T04:08:33.037Z,15.50
2022-08-22T04:19:18.454Z,15.60
2022-08-22T04:29:29.134Z,15.60
2022-08-22T04:39:43.069Z,15.80
2022-08-22T04:49:53.608Z,15.80
2022-08-22T05:00:02.497Z,15.90
2022-08-22T05:10:15.376Z,16.00
2022-08-22T05:20:23.442Z,16.10
2022-08-22T05:30:32.285Z,16.00
2022-08-22T05:40:39.070Z,16.10
2022-08-22T05:50:50.822Z,16.30
2022-08-22T06:01:03.759Z,16.60
2022-08-22T06:11:14.489Z,16.70
2022-08-22T06:21:24.239Z,16.80
2022-08-22T06:31:34.252Z,17.10
2022-08-22T06:41:42.479Z,17.20
2022-08-22T06:51:52.429Z,17.30
2022-08-22T07:02:05.419Z,17.40
2022-08-22T07:12:20.913Z,17.50
2022-08-22T07:22:28.566Z,17.40
2022-08-22T07:32:49.681Z,17.40
2022-08-22T07:43:00.352Z,17.60
2022-08-22T07:53:15.580Z,18.00
2022-08-22T08:03:23.768Z,18.10
2022-08-22T08:13:36.339Z,18.50
2022-08-22T08:23:46.798Z,18.90
2022-08-22T08:34:01.430Z,19.10
2022-08-22T08:44:24.025Z,19.40
2022-08-22T08:54:57.764Z,19.20
2022-08-22T09:05:55.877Z,19.10
2022-08-22T09:16:20.128Z,18.70
2022-08-22T09:26:31.984Z,18.10
2022-08-22T09:37:04.571Z,17.90
2022-08-22T09:47:24.352Z,17.70
2022-08-22T09:57:39.001Z,17.60
2022-08-22T10:08:05.271Z,17.80
2022-08-22T10:18:33.023Z,18.00
2022-08-22T10:28:49.878Z,18.00
2022-08-22T10:38:57.705Z,17.90
2022-08-22T10:49:08.238Z,18.20
2022-08-22T10:59:32.212Z,19.80
2022-08-22T11:09:43.603Z,22.70
2022-08-22T11:20:10.044Z,33.60
2022-08-22T11:30:18.377Z,33.00
2022-08-22T11:40:41.851Z,33.60
2022-08-22T11:50:52.267Z,29.50
2022-08-22T12:01:04.572Z,36.60
2022-08-22T12:11:13.922Z,39.20
2022-08-22T12:22:05.433Z,37.90
2022-08-22T12:33:01.837Z,38.50
2022-08-22T12:43:32.397Z,35.30
2022-08-22T12:54:10.592Z,30.60
2022-08-22T13:04:33.072Z,31.60
2022-08-22T13:14:37.882Z,29.40
2022-08-22T13:24:52.452Z,28.90
2022-08-22T13:34:59.487Z,29.60
2022-08-22T13:45:14.258Z,29.10
2022-08-22T13:55:29.509Z,27.00
2022-08-22T14:05:40.433Z,26.10
2022-08-22T14:15:44.818Z,28.30
2022-08-22T14:25:51.405Z,27.90
2022-08-22T14:36:02.174Z,27.30
2022-08-22T14:46:12.674Z,25.90
2022-08-22T14:56:24.225Z,25.30
2022-08-22T15:06:38.449Z,24.70
2022-08-22T15:16:57.255Z,23.90
2022-08-22T15:27:02.469Z,23.30
2022-08-22T15:37:32.750Z,22.50
2022-08-22T15:47:43.233Z,21.60
2022-08-22T15:58:06.859Z,21.20
2022-08-22T16:08:14.416Z,21.00
2022-08-22T16:19:14.210Z,20.60
2022-08-22T16:29:35.875Z,20.20
2022-08-22T16:39:48.766Z,19.80
2022-08-22T16:50:06.453Z,19.60
2022-08-22T17:00:22.797Z,19.20
2022-08-22T17:10:44.966Z,18.90
2022-08-22T17:20:57.565Z,18.50
2022-08-22T17:31:09.685Z,18.20
2022-08-22T17:41:32.744Z,18.00
2022-08-22T17:51:46.957Z,17.90
2022-08-22T18:01:55.528Z,17.70
2022-08-22T18:12:08.890Z,17.60
2022-08-22T18:22:22.784Z,17.50
2022-08-22T18:32:35.146Z,17.40
2022-08-22T18:42:45.518Z,17.30
2022-08-22T18:52:51.119Z,17.20
2022-08-22T19:03:24.501Z,17.20
2022-08-22T19:14:08.930Z,17.10
2022-08-22T19:24:47.532Z,17.10
2022-08-22T19:35:20.947Z,17.10
2022-08-22T19:45:29.481Z,16.90
2022-08-22T19:55:54.575Z,17.00
2022-08-22T20:06:06.987Z,16.80
2022-08-22T20:16:21.413Z,16.70
2022-08-22T20:26:25.349Z,16.70
2022-08-22T20:36:32.594Z,16.50
2022-08-22T20:47:41.099Z,16.40
2022-08-22T20:57:53.448Z,16.40
2022-08-22T21:08:08.720Z,16.40
2022-08-22T21:18:24.205Z,16.30
2022-08-22T21:28:32.575Z,16.20
2022-08-22T21:38:38.613Z,16.10
2022-08-22T21:48:46.010Z,16.10
2022-08-22T21:58:51.276Z,16.10
2022-08-22T22:08:55.657Z,16.20
2022-08-22T22:19:01.936Z,16.00
2022-08-22T22:29:05.912Z,16.00
2022-08-22T22:39:14.135Z,15.90
2022-08-22T22:49:19.543Z,15.90
2022-08-22T22:59:25.370Z,15.80
2022-08-22T23:09:44.911Z,15.80
2022-08-22T23:20:01.143Z,15.70
2022-08-22T23:30:06.136Z,15.50
2022-08-22T23:40:13.099Z,15.40
2022-08-22T23:50:17.006Z,15.30
